Westville, Canada
Current Conditions -  °F | °C
As of 1:00 PM on Saturday 25 Oct 2014 (Local Time) from CYYG Reporting Station
Drizzle Drizzle  
Wind Chill: 50°   Ceiling: 400
Heat Index: 50°   Visibility: 3mi
Dew Point: 48°   Wind: 12mph
Humidity: 94%   Direction: 350°N
Pressure: 29.45"   Gusts: 18mph
Location:  45.55°N, 62.72°W
Report Text: CYYG 251600Z 35010G16KT 3SM -DZ BR OVC004 10/09 A2945 RMK SF8 SLP974
Loading
Personal Weather Stations






























Interactive Weather Map
Tropical Storm Tracking
New forecast layout! Learn more

10-Day Weather Forecast

Advertisements
Track Severe Weather on mobile